Home > Products > Valid Products > MTR

000
SAUS43 KEAX 211053
MTRCDJ
METAR KCDJ 211052Z AUTO 29005KT 08/M02 A2983 RMK AO1 SLP102
T00781017





000
SAUS43 KEAX 211053
MTRCDJ
METAR KCDJ 211052Z AUTO 29005KT 08/M02 A2983 RMK AO1 SLP102
T00781017





000
SAUS43 KEAX 210953
MTRCDJ
METAR KCDJ 210952Z AUTO 27004KT 08/M01 A2983 RMK AO1 SLP101
T00781011





000
SAUS43 KEAX 210853
MTRCDJ
METAR KCDJ 210852Z AUTO VRB03KT 07/M01 A2983 RMK AO1 SLP102
T00721011 55001





000
SAUS43 KEAX 210754
MTRCDJ
METAR KCDJ 210752Z AUTO VRB03KT 08/M02 A2982 RMK AO1 SLP100
T00781017





000
SAUS43 KEAX 210656
MTRCDJ
METAR KCDJ 210652Z AUTO 00000KT 08/M01 A2983 RMK AO1 SLP102
T00831011





000
SAUS43 KEAX 210656
MTRCDJ
METAR KCDJ 210652Z AUTO 00000KT 08/M01 A2983 RMK AO1 SLP102
T00831011





000
SAUS43 KEAX 210553
MTRCDJ
METAR KCDJ 210552Z AUTO 24004KT 08/M02 A2983 RMK AO1 SLP103
T00781017 10139 20061 401500061 53002





000
SAUS43 KEAX 210553
MTRCDJ
METAR KCDJ 210552Z AUTO 24004KT 08/M02 A2983 RMK AO1 SLP103
T00781017 10139 20061 401500061 53002





000
SAUS43 KEAX 210453
MTRCDJ
METAR KCDJ 210452Z AUTO 23003KT 08/M02 A2982 RMK AO1 SLP100
T00781022





000
SAUS43 KEAX 210353
MTRCDJ
METAR KCDJ 210352Z AUTO 23004KT 08/M02 A2982 RMK AO1 SLP102
T00831022





000
SAUS43 KEAX 210253
MTRCDJ
METAR KCDJ 210252Z AUTO 00000KT 09/M02 A2982 RMK AO1 SLP102
T00891022 53010





000
SAUS43 KEAX 210253
MTRCDJ
METAR KCDJ 210252Z AUTO 00000KT 09/M02 A2982 RMK AO1 SLP102
T00891022 53010





000
SAUS43 KEAX 210153
MTRCDJ
METAR KCDJ 210152Z AUTO 25003KT 11/M04 A2981 RMK AO1 SLP096
T01111039





000
SAUS43 KEAX 210054
MTRCDJ
METAR KCDJ 210052Z AUTO VRB04G15KT 13/M04 A2980 RMK AO1 SLP092
T01281044





000
SAUS43 KEAX 210054
MTRCDJ
METAR KCDJ 210052Z AUTO VRB04G15KT 13/M04 A2980 RMK AO1 SLP092
T01281044





000
SAUS43 KEAX 202353
MTRCDJ
METAR KCDJ 202352Z AUTO 30010KT 14/M04 A2979 RMK AO1 SLP090
T01391039 10150 20111 58001





000
SAUS43 KEAX 202253
MTRCDJ
METAR KCDJ 202252Z AUTO 29010G21KT 14/M04 A2979 RMK AO1 SLP089
T01441039





000
SAUS43 KEAX 202153
MTRCDJ
METAR KCDJ 202152Z AUTO 30014G21KT 14/M02 A2979 RMK AO1 PK WND
31028/2129 SLP090 T01391022





000
SAUS43 KEAX 202053
MTRCDJ
METAR KCDJ 202052Z AUTO 28011G27KT 13/M02 A2979 RMK AO1 PK WND
31027/2011 SLP089 T01331022 56001





000
SAUS43 KEAX 201953
MTRCDJ
METAR KCDJ 201952Z AUTO 29009G18KT 13/M01 A2980 RMK AO1 PK WND
31028/1907 SLP091 T01281006





000
SAUS43 KEAX 201953
MTRCDJ
METAR KCDJ 201952Z AUTO 29009G18KT 13/M01 A2980 RMK AO1 PK WND
31028/1907 SLP091 T01281006





000
SAUS43 KEAX 201853
MTRCDJ
METAR KCDJ 201852Z AUTO 31009G22KT 270V340 13/01 A2979 RMK AO1
SLP088 T01280006





000
SAUS43 KEAX 201853
MTRCDJ
METAR KCDJ 201852Z AUTO 31009G22KT 270V340 13/01 A2979 RMK AO1
SLP088 T01280006





000
SAUS43 KEAX 201753
MTRCDJ
METAR KCDJ 201752Z AUTO 30014G22KT 12/01 A2980 RMK AO1 PK WND
31026/1722 SLP090 T01220006 10122 20072 50007





000
SAUS43 KEAX 201653
MTRCDJ
METAR KCDJ 201652Z AUTO 32012G24KT 12/01 A2980 RMK AO1 PK WND
32027/1617 SLP092 T01170006





000
SAUS43 KEAX 201653
MTRCDJ
METAR KCDJ 201652Z AUTO 32012G24KT 12/01 A2980 RMK AO1 PK WND
32027/1617 SLP092 T01170006





000
SAUS43 KEAX 201553
MTRCDJ
METAR KCDJ 201552Z AUTO 31013G25KT 11/01 A2979 RMK AO1 PK WND
31027/1531 SLP089 T01060011





000
SAUS43 KEAX 201553
MTRCDJ
METAR KCDJ 201552Z AUTO 31013G25KT 11/01 A2979 RMK AO1 PK WND
31027/1531 SLP089 T01060011





000
SAUS43 KEAX 201453
MTRCDJ
METAR KCDJ 201452Z AUTO 29010G20KT 09/02 A2977 RMK AO1 PK WND
31028/1358 SLP084 T00940022 51017





000
SAUS43 KEAX 201353
MTRCDJ
METAR KCDJ 201352Z AUTO 30013G22KT 09/03 A2976 RMK AO1 SLP080
T00940028





000
SAUS43 KEAX 201353
MTRCDJ
METAR KCDJ 201352Z AUTO 30013G22KT 09/03 A2976 RMK AO1 SLP080
T00940028





000
SAUS43 KEAX 201253
MTRCDJ
METAR KCDJ 201252Z AUTO 29011G22KT 240V330 08/03 A2974 RMK AO1
SLP074 T00830028





000
SAUS43 KEAX 201153
MTRCDJ
METAR KCDJ 201152Z AUTO 30008KT 07/03 A2972 RMK AO1 SLP067 70001
T00720028 10100 20072 53014 $





000
SAUS43 KEAX 201153
MTRCDJ
METAR KCDJ 201152Z AUTO 30008KT 07/03 A2972 RMK AO1 SLP067 70001
T00720028 10100 20072 53014 $





000
SAUS43 KEAX 201053
MTRCDJ
METAR KCDJ 201052Z AUTO 30007G16KT 260V320 08/03 A2971 RMK AO1
SLP060 T00780028 $





000
SAUS43 KEAX 201053
MTRCDJ
METAR KCDJ 201052Z AUTO 30007G16KT 260V320 08/03 A2971 RMK AO1
SLP060 T00780028 $





000
SAUS43 KEAX 200953
MTRCDJ
METAR KCDJ 200952Z AUTO 29010G16KT 08/03 A2969 RMK AO1 SLP054
T00830028 $





000
SAUS43 KEAX 200853
MTRCDJ
METAR KCDJ 200852Z AUTO 30008G17KT 09/03 A2968 RMK AO1 SLP050
T00890028 53005 $





000
SAUS43 KEAX 200853
MTRCDJ
METAR KCDJ 200852Z AUTO 30008G17KT 09/03 A2968 RMK AO1 SLP050
T00890028 53005 $





000
SAUS43 KEAX 200753
MTRCDJ
METAR KCDJ 200752Z AUTO 31008G16KT 10/04 A2966 RMK AO1 SLP043
T01000039 $





000
SAUS43 KEAX 200753
MTRCDJ
METAR KCDJ 200752Z AUTO 31008G16KT 10/04 A2966 RMK AO1 SLP043
T01000039 $





000
SAUS43 KEAX 200653
MTRCDJ
METAR KCDJ 200652Z AUTO VRB06KT 10/06 A2967 RMK AO1 SLP043 T01000056
$





000
SAUS43 KEAX 200653
MTRCDJ
METAR KCDJ 200652Z AUTO VRB06KT 10/06 A2967 RMK AO1 SLP043 T01000056
$





000
SAUS43 KEAX 200553
MTRCDJ
METAR KCDJ 200552Z AUTO 30007KT 10/06 A2967 RMK AO1 SLP042 T01000056
10133 20100 402110100 53005





000
SAUS43 KEAX 200453
MTRCDJ
METAR KCDJ 200452Z AUTO 32008KT 11/05 A2966 RMK AO1 SLP040 T01060050





000
SAUS43 KEAX 200353
MTRCDJ
METAR KCDJ 200352Z AUTO 33007G18KT 11/06 A2965 RMK AO1 SLP036
T01060061





000
SAUS43 KEAX 200253
MTRCDJ
METAR KCDJ 200252Z AUTO 32007G19KT 11/08 A2965 RMK AO1 SLP036
T01110078 51018





000
SAUS43 KEAX 200253
MTRCDJ
METAR KCDJ 200252Z AUTO 32007G19KT 11/08 A2965 RMK AO1 SLP036
T01110078 51018





000
SAUS43 KEAX 200153
MTRCDJ
METAR KCDJ 200152Z AUTO 32013G21KT 12/08 A2964 RMK AO1 PK WND
30026/0055 SLP036 T01170083





000
SAUS43 KEAX 200053
MTRCDJ
METAR KCDJ 200052Z AUTO 31013G20KT 280V340 12/10 A2962 RMK AO1 PK
WND 31028/0010 SLP029 T01220100





000
SAUS43 KEAX 200053
MTRCDJ
METAR KCDJ 200052Z AUTO 31013G20KT 280V340 12/10 A2962 RMK AO1 PK
WND 31028/0010 SLP029 T01220100





000
SAUS43 KEAX 192353
MTRCDJ
METAR KCDJ 192352Z AUTO 32011G24KT 13/11 A2960 RMK AO1 SLP019
T01330106 10194 20133 53005





000
SAUS43 KEAX 192253
MTRCDJ
METAR KCDJ 192252Z AUTO 29009G15KT 15/12 A2958 RMK AO1 SLP015
T01500117





000
SAUS43 KEAX 192153
MTRCDJ
METAR KCDJ 192152Z AUTO 29011G19KT 240V310 16/12 A2958 RMK AO1
SLP013 T01610122





000
SAUS43 KEAX 192053
MTRCDJ
METAR KCDJ 192052Z AUTO 28012G19KT 18/12 A2958 RMK AO1 SLP012
T01830122 56014





000
SAUS43 KEAX 191953
MTRCDJ
METAR KCDJ 191952Z AUTO 26008KT 220V290 19/12 A2959 RMK AO1 SLP013
T01890122





000
SAUS43 KEAX 191953
MTRCDJ
METAR KCDJ 191952Z AUTO 26008KT 220V290 19/12 A2959 RMK AO1 SLP013
T01890122





000
SAUS43 KEAX 191853
MTRCDJ
METAR KCDJ 191852Z AUTO 25006KT 19/14 A2960 RMK AO1 SLP019 T01890144





000
SAUS43 KEAX 191753
MTRCDJ
METAR KCDJ 191752Z AUTO 27007KT 220V300 19/15 A2962 RMK AO1 SLP026
60001 T01940150 10211 20150 58012





000
SAUS43 KEAX 191653
MTRCDJ
METAR KCDJ 191652Z AUTO 20007KT 21/15 A2964 RMK AO1 SLP031 T02060150





000
SAUS43 KEAX 191553
MTRCDJ
METAR KCDJ 191552Z AUTO VRB03KT 20/16 A2966 RMK AO1 SLP037 T02000156





000
SAUS43 KEAX 191453
MTRCDJ
METAR KCDJ 191452Z AUTO VRB03KT 19/14 A2966 RMK AO1 SLP037 60001
T01940144 56022





000
SAUS43 KEAX 191353
MTRCDJ
METAR KCDJ 191352Z AUTO 09007KT 17/15 A2967 RMK AO1 SLP040 T01720150





000
SAUS43 KEAX 191353
MTRCDJ
METAR KCDJ 191352Z AUTO 09007KT 17/15 A2967 RMK AO1 SLP040 T01720150





000
SAUS43 KEAX 191253
MTRCDJ
METAR KCDJ 191252Z AUTO 05003KT 15/14 A2971 RMK AO1 SLP056 P0001
T01500139





000
SAUS43 KEAX 191153
MTRCDJ
METAR KCDJ 191152Z AUTO 00000KT 15/14 A2973 RMK AO1 SLP061 P0006
60006 70023 T01500139 10150 20139 58010





000
SAUS43 KEAX 191053
MTRCDJ
METAR KCDJ 191052Z AUTO 00000KT 14/14 A2974 RMK AO1 SLP065 T01390139





000
SAUS43 KEAX 191053
MTRCDJ
METAR KCDJ 191052Z AUTO 00000KT 14/14 A2974 RMK AO1 SLP065 T01390139





000
SAUS43 KEAX 191000 COR
MTRCDJ
METAR KCDJ 190952Z AUTO 00000KT 14/14 A2975 RMK AO1 SLP071 T01440139





000
SAUS43 KEAX 190953
MTRCDJ
METAR KCDJ 190952Z AUTO 00000KT 14/14 A2975 RMK AO1 SLP071 T01440139





000
SAUS43 KEAX 190853
MTRCDJ
METAR KCDJ 190852Z AUTO 00000KT 14/14 A2976 RMK AO1 SLP072 T01440139
56025





000
SAUS43 KEAX 190853
MTRCDJ
METAR KCDJ 190852Z AUTO 00000KT 14/14 A2976 RMK AO1 SLP072 T01440139
56025





000
SAUS43 KEAX 190753
MTRCDJ
METAR KCDJ 190752Z AUTO 00000KT 15/14 A2977 RMK AO1 SLP076 T01500139





000
SAUS43 KEAX 190653
MTRCDJ
METAR KCDJ 190652Z AUTO 00000KT 15/14 A2981 RMK AO1 SLP087 T01500144





000
SAUS43 KEAX 190553
MTRCDJ
METAR KCDJ 190552Z AUTO 00000KT 15/14 A2983 RMK AO1 SLP095 P0003
60004 T01500144 10178 20139 402220139 56009





000
SAUS43 KEAX 190553
MTRCDJ
METAR KCDJ 190552Z AUTO 00000KT 15/14 A2983 RMK AO1 SLP095 P0003
60004 T01500144 10178 20139 402220139 56009





000
SAUS43 KEAX 190453
MTRCDJ
METAR KCDJ 190452Z AUTO 00000KT 14/14 A2983 RMK AO1 SLP096 P0001
T01440139





000
SAUS43 KEAX 190453
MTRCDJ
METAR KCDJ 190452Z AUTO 00000KT 14/14 A2983 RMK AO1 SLP096 P0001
T01440139





000
SAUS43 KEAX 190353
MTRCDJ
METAR KCDJ 190352Z AUTO 00000KT 14/14 A2985 RMK AO1 SLP102 T01440139





000
SAUS43 KEAX 190253
MTRCDJ
METAR KCDJ 190252Z AUTO 00000KT 16/14 A2986 RMK AO1 SLP105 T01560144
53001





000
SAUS43 KEAX 190253
MTRCDJ
METAR KCDJ 190252Z AUTO 00000KT 16/14 A2986 RMK AO1 SLP105 T01560144
53001





000
SAUS43 KEAX 190153
MTRCDJ
METAR KCDJ 190152Z AUTO 00000KT 17/15 A2985 RMK AO1 SLP102 T01670150





000
SAUS43 KEAX 190053
MTRCDJ
METAR KCDJ 190052Z AUTO 12005KT 17/16 A2986 RMK AO1 SLP104 T01720156





000
SAUS43 KEAX 190053
MTRCDJ
METAR KCDJ 190052Z AUTO 12005KT 17/16 A2986 RMK AO1 SLP104 T01720156





000
SAUS43 KEAX 182353
MTRCDJ
METAR KCDJ 182352Z AUTO VRB03KT 18/16 A2986 RMK AO1 SLP105 60005
T01780156 10222 20172 56028





000
SAUS43 KEAX 182253
MTRCDJ
METAR KCDJ 182252Z AUTO VRB04KT 18/16 A2988 RMK AO1 SLP113 P0001
T01780156





000
SAUS43 KEAX 182153
MTRCDJ
METAR KCDJ 182152Z AUTO 00000KT 17/15 A2989 RMK AO1 SLP119 P0003
T01720150





000
SAUS43 KEAX 182053
MTRCDJ
METAR KCDJ 182052Z AUTO 20008KT 18/16 A2994 RMK AO1 SLP133 P0001
60001 T01780156 53003





000
SAUS43 KEAX 181953
MTRCDJ
METAR KCDJ 181952Z AUTO 23006KT 20/16 A2992 RMK AO1 SLP125 T02000156





000
SAUS43 KEAX 181953
MTRCDJ
METAR KCDJ 181952Z AUTO 23006KT 20/16 A2992 RMK AO1 SLP125 T02000156





000
SAUS43 KEAX 181853
MTRCDJ
METAR KCDJ 181852Z AUTO VRB05KT 21/15 A2991 RMK AO1 SLP121 T02110150





000
SAUS43 KEAX 181853
MTRCDJ
METAR KCDJ 181852Z AUTO VRB05KT 21/15 A2991 RMK AO1 SLP121 T02110150





000
SAUS43 KEAX 181753
MTRCDJ
METAR KCDJ 181752Z AUTO VRB05KT 20/16 A2993 RMK AO1 SLP128 P0008
60008 T02000161 10217 20156 50001





000
SAUS43 KEAX 181653
MTRCDJ
METAR KCDJ 181652Z AUTO 21008KT 21/17 A2994 RMK AO1 SLP133 T02060167





000
SAUS43 KEAX 181653
MTRCDJ
METAR KCDJ 181652Z AUTO 21008KT 21/17 A2994 RMK AO1 SLP133 T02060167





000
SAUS43 KEAX 181553
MTRCDJ
METAR KCDJ 181552Z AUTO 12007KT 21/16 A2994 RMK AO1 SLP132 T02060161





000
SAUS43 KEAX 181453
MTRCDJ
METAR KCDJ 181452Z AUTO 13006KT 21/16 A2993 RMK AO1 SLP127 T02060161
58005





000
SAUS43 KEAX 181353
MTRCDJ
METAR KCDJ 181352Z AUTO 12006KT 18/15 A2994 RMK AO1 SLP130 T01830150





000
SAUS43 KEAX 181353
MTRCDJ
METAR KCDJ 181352Z AUTO 12006KT 18/15 A2994 RMK AO1 SLP130 T01830150





000
SAUS43 KEAX 181254
MTRCDJ
METAR KCDJ 181252Z AUTO 11005KT 18/14 A2994 RMK AO1 SLP131 T01780144





000
SAUS43 KEAX 181254
MTRCDJ
METAR KCDJ 181252Z AUTO 11005KT 18/14 A2994 RMK AO1 SLP131 T01780144





000
SAUS43 KEAX 181153
MTRCDJ
METAR KCDJ 181152Z AUTO 00000KT 17/14 A2995 RMK AO1 SLP131 60025
70025 T01670139 10194 20150 56004





000
SAUS43 KEAX 181153
MTRCDJ
METAR KCDJ 181152Z AUTO 00000KT 17/14 A2995 RMK AO1 SLP131 60025
70025 T01670139 10194 20150 56004





    US Dept of Commerce
    National Oceanic and Atmospheric Administration
    National Weather Service
    1325 East West Highway
    Silver Spring, MD 20910
    Page Author: NWS Internet Services Team
Disclaimer
Information Quality
Credits
Glossary
Privacy Policy
Freedom of Information Act (FOIA)
About Us
Career Opportunities